Time;durP1;ratioP1;P1;durP2;ratioP2;P2;SDS_P1;SDS_P2;PMS_P1;PMS_P2;Temp;Humidity;BMP_temperature;BMP_pressure;BME280_temperature;BME280_humidity;BME280_pressure;Samples;Min_cycle;Max_cycle;Signal;HPM_P1;HPM_P2
2023/02/15 00:00:15;;;;;;;31.73;18.27;;;;;;;1.44;100.00;102135.81;5046438;28;20044;-69
2023/02/15 00:02:40;;;;;;;36.60;19.45;;;;;;;1.48;100.00;102133.09;5052793;28;20139;-69
2023/02/15 00:05:06;;;;;;;34.10;18.27;;;;;;;1.51;100.00;102133.00;5047729;28;20029;-69
2023/02/15 00:07:32;;;;;;;28.10;17.23;;;;;;;1.57;100.00;102127.69;5050976;28;20385;-69
2023/02/15 00:09:57;;;;;;;32.15;16.98;;;;;;;1.64;100.00;102125.78;5044147;28;20029;-69
2023/02/15 00:12:23;;;;;;;27.30;16.25;;;;;;;1.70;100.00;102130.72;5045151;28;20112;-69
2023/02/15 00:14:49;;;;;;;30.98;14.98;;;;;;;1.76;100.00;102138.25;5046959;28;20033;-69
2023/02/15 00:17:14;;;;;;;25.52;15.52;;;;;;;1.81;100.00;102132.97;5044214;28;20366;-69
2023/02/15 00:19:40;;;;;;;23.02;14.52;;;;;;;1.79;100.00;102133.03;5046010;28;20028;-69
2023/02/15 00:22:05;;;;;;;27.33;15.68;;;;;;;1.70;100.00;102137.59;5046522;28;20067;-69
2023/02/15 00:24:31;;;;;;;31.77;15.48;;;;;;;1.59;100.00;102135.34;5042126;28;20369;-69
2023/02/15 00:26:57;;;;;;;23.33;14.15;;;;;;;1.55;100.00;102129.47;5048210;28;20060;-69
2023/02/15 00:29:22;;;;;;;21.27;13.38;;;;;;;1.63;100.00;102137.78;5047640;28;20035;-69
2023/02/15 00:31:48;;;;;;;23.00;14.07;;;;;;;1.64;100.00;102124.06;5048815;28;20027;-69
2023/02/15 00:34:18;;;;;;;21.60;13.15;;;;;;;1.63;100.00;102122.38;5049277;28;20040;-69
2023/02/15 00:36:44;;;;;;;20.63;13.45;;;;;;;1.62;100.00;102118.13;5040985;28;20567;-69
2023/02/15 00:39:11;;;;;;;25.17;13.55;;;;;;;1.59;100.00;102114.78;5042524;28;20127;-69
2023/02/15 00:41:36;;;;;;;22.98;13.52;;;;;;;1.57;100.00;102119.97;5047256;28;20108;-69
2023/02/15 00:44:02;;;;;;;23.02;14.13;;;;;;;1.54;100.00;102112.38;5045882;28;20093;-69
2023/02/15 00:46:27;;;;;;;23.15;11.38;;;;;;;1.52;100.00;102109.00;5045708;28;20400;-69
2023/02/15 00:48:53;;;;;;;19.98;10.95;;;;;;;1.49;100.00;102103.13;5046549;28;20495;-69
2023/02/15 00:51:20;;;;;;;18.10;12.10;;;;;;;1.49;100.00;102103.97;5047760;28;20029;-69
2023/02/15 00:53:45;;;;;;;20.83;11.27;;;;;;;1.56;100.00;102112.31;5045049;28;20037;-69
2023/02/15 00:56:11;;;;;;;18.88;11.57;;;;;;;1.57;100.00;102107.13;5046055;28;20060;-69
2023/02/15 00:58:37;;;;;;;19.98;11.50;;;;;;;1.55;100.00;102103.78;5044992;28;20837;-69
2023/02/15 01:01:08;;;;;;;23.77;12.65;;;;;;;1.52;100.00;102101.28;5048229;28;20055;-69
2023/02/15 01:03:34;;;;;;;19.13;11.52;;;;;;;1.51;100.00;102104.75;5046205;28;20029;-69
2023/02/15 01:06:00;;;;;;;21.25;12.55;;;;;;;1.48;100.00;102093.72;5044445;28;20514;-69
2023/02/15 01:08:27;;;;;;;21.75;11.90;;;;;;;1.44;100.00;102082.69;5037883;28;20042;-69
2023/02/15 01:10:53;;;;;;;16.15;9.98;;;;;;;1.57;100.00;102084.00;5043442;28;20120;-69
2023/02/15 01:13:19;;;;;;;21.55;11.82;;;;;;;1.97;100.00;102080.16;5051811;28;20071;-69
2023/02/15 01:15:44;;;;;;;18.58;9.32;;;;;;;1.98;100.00;102079.28;5043698;28;20059;-69
2023/02/15 01:18:11;;;;;;;16.33;10.07;;;;;;;1.96;100.00;102075.91;5044040;28;20033;-69
2023/02/15 01:20:40;;;;;;;15.50;9.18;;;;;;;1.86;100.00;102065.13;5042772;28;20036;-69
2023/02/15 01:23:06;;;;;;;18.33;10.20;;;;;;;1.84;100.00;102063.47;5044570;28;20124;-69
2023/02/15 01:25:33;;;;;;;17.30;9.02;;;;;;;1.87;100.00;102064.22;5048839;28;20119;-69
2023/02/15 01:27:59;;;;;;;18.05;9.73;;;;;;;1.98;100.00;102071.56;5047053;28;20036;-69
2023/02/15 01:30:24;;;;;;;16.70;9.70;;;;;;;2.11;100.00;102070.28;5049846;28;20021;-69
2023/02/15 01:32:50;;;;;;;15.77;9.15;;;;;;;2.35;100.00;102066.03;5051161;28;20170;-69
2023/02/15 01:35:15;;;;;;;13.63;8.48;;;;;;;2.31;100.00;102060.16;5047364;28;20366;-69
2023/02/15 01:37:40;;;;;;;16.33;9.52;;;;;;;2.17;100.00;102057.22;5044886;28;20140;-69
2023/02/15 01:40:12;;;;;;;15.25;8.75;;;;;;;2.12;100.00;102053.94;5047628;28;20476;-69
2023/02/15 01:42:37;;;;;;;15.85;8.82;;;;;;;2.15;100.00;102051.28;5043729;28;20557;-69
2023/02/15 01:45:14;;;;;;;17.10;9.02;;;;;;;2.52;100.00;102052.56;5058684;28;20032;-69
2023/02/15 01:47:44;;;;;;;16.60;9.18;;;;;;;2.66;99.95;102040.06;5043718;28;20155;-69
2023/02/15 01:50:16;;;;;;;16.42;8.10;;;;;;;2.60;99.94;102043.69;5047873;28;20025;-69
2023/02/15 01:52:59;;;;;;;12.93;7.20;;;;;;;3.79;94.33;102035.63;5048383;28;20038;-69
2023/02/15 01:55:29;;;;;;;13.93;7.85;;;;;;;3.97;91.75;102035.72;5052985;28;20036;-69
2023/02/15 01:57:54;;;;;;;15.65;8.95;;;;;;;3.50;92.91;102035.09;5051334;28;20017;-69
2023/02/15 02:00:21;;;;;;;12.63;8.07;;;;;;;3.10;95.05;102033.25;5054340;28;20028;-69
2023/02/15 02:02:50;;;;;;;15.68;9.00;;;;;;;2.71;96.76;102037.31;5052218;28;20130;-69
2023/02/15 02:05:16;;;;;;;19.33;9.52;;;;;;;2.37;98.83;102035.09;5049021;28;20060;-69
2023/02/15 02:07:45;;;;;;;12.05;7.95;;;;;;;2.13;100.00;102029.06;5049541;28;22725;-69
2023/02/15 02:10:13;;;;;;;14.00;8.90;;;;;;;2.00;100.00;102015.78;5045790;28;20052;-69
2023/02/15 02:12:42;;;;;;;15.10;8.93;;;;;;;1.86;100.00;102021.44;5043759;28;20063;-69
2023/02/15 02:15:08;;;;;;;18.98;9.45;;;;;;;1.79;100.00;102031.94;5046024;28;20033;-69
2023/02/15 02:17:42;;;;;;;17.80;9.48;;;;;;;1.75;100.00;102035.50;5050285;28;20362;-69
2023/02/15 02:20:38;;;;;;;15.95;9.02;;;;;;;1.66;100.00;102034.06;5044986;28;20036;-69
2023/02/15 02:23:24;;;;;;;14.32;8.82;;;;;;;1.55;100.00;102031.84;5048925;28;20115;-69
2023/02/15 02:26:26;;;;;;;14.63;8.30;;;;;;;1.49;100.00;102026.91;5045033;28;20072;-69
2023/02/15 02:29:17;;;;;;;17.20;9.38;;;;;;;1.50;100.00;102027.75;5047071;28;20469;-69
2023/02/15 02:32:00;;;;;;;17.40;8.77;;;;;;;1.55;100.00;102024.13;5041052;28;20044;-69
2023/02/15 02:34:29;;;;;;;14.57;9.00;;;;;;;1.67;100.00;102031.44;5045221;28;20048;-69
2023/02/15 02:37:12;;;;;;;16.98;8.90;;;;;;;1.77;100.00;102029.44;5048270;28;20059;-69
2023/02/15 02:39:50;;;;;;;14.10;8.48;;;;;;;1.75;100.00;102027.81;5048733;28;20029;-69
2023/02/15 02:42:48;;;;;;;14.63;8.32;;;;;;;1.72;100.00;102028.75;5047655;28;20483;-69
2023/02/15 02:45:20;;;;;;;21.52;9.35;;;;;;;1.72;100.00;102027.91;5065540;28;20076;-69
2023/02/15 02:47:51;;;;;;;13.43;7.43;;;;;;;1.82;100.00;102035.25;5046923;28;20033;-69
2023/02/15 02:50:23;;;;;;;15.32;8.15;;;;;;;1.75;100.00;102032.94;5046117;28;20052;-69
2023/02/15 02:52:51;;;;;;;18.13;8.65;;;;;;;1.65;100.00;102032.41;5049381;28;20100;-69
2023/02/15 02:55:16;;;;;;;16.95;8.35;;;;;;;1.52;100.00;102026.81;5046411;28;20079;-69
2023/02/15 02:57:55;;;;;;;12.57;7.90;;;;;;;2.05;100.00;102025.94;5041262;28;20100;-69
2023/02/15 03:00:23;;;;;;;13.98;7.57;;;;;;;2.22;100.00;102014.19;5047636;28;20129;-69
2023/02/15 03:02:58;;;;;;;17.50;7.55;;;;;;;2.05;100.00;102019.06;5044683;28;20372;-69
2023/02/15 03:05:28;;;;;;;14.53;7.97;;;;;;;1.99;100.00;102016.69;5047405;28;20067;-69
2023/02/15 03:07:56;;;;;;;15.27;7.88;;;;;;;2.26;100.00;102010.59;5045190;28;20287;-69
2023/02/15 03:10:23;;;;;;;13.50;7.40;;;;;;;2.42;100.00;102010.03;5045356;28;20044;-69
2023/02/15 03:12:50;;;;;;;12.55;7.93;;;;;;;2.45;98.57;102007.38;5038057;28;20030;-69
2023/02/15 03:15:25;;;;;;;13.63;7.85;;;;;;;2.24;99.28;102008.97;5044735;28;20113;-69
2023/02/15 03:18:02;;;;;;;12.30;7.00;;;;;;;2.07;100.00;102003.56;5043545;28;20086;-69
2023/02/15 03:20:36;;;;;;;11.98;7.35;;;;;;;2.42;100.00;102000.59;5044506;28;20276;-69
2023/02/15 03:23:06;;;;;;;12.40;7.50;;;;;;;2.62;98.20;102003.28;5048770;28;20056;-69
2023/02/15 03:25:36;;;;;;;12.48;6.47;;;;;;;2.65;98.06;102002.34;5048475;28;20033;-69
2023/02/15 03:28:08;;;;;;;16.95;7.50;;;;;;;2.92;96.82;102006.44;5046529;28;20033;-69
2023/02/15 03:30:35;;;;;;;12.38;7.65;;;;;;;2.78;96.74;102002.72;5045842;28;20043;-69
2023/02/15 03:33:02;;;;;;;14.90;7.50;;;;;;;2.57;98.14;102002.63;5047047;28;20369;-69
2023/02/15 03:35:47;;;;;;;13.88;7.57;;;;;;;2.44;99.04;101997.97;5045422;28;20503;-69
2023/02/15 03:38:18;;;;;;;13.30;7.40;;;;;;;2.49;99.89;102011.50;5047783;28;20413;-69
2023/02/15 03:43:49;;;;;;;14.75;7.78;;;;;;;3.14;94.87;101996.16;5048230;28;20044;-69
2023/02/15 03:46:32;;;;;;;11.43;6.90;;;;;;;3.15;95.21;101999.59;5051519;28;20040;-69
2023/02/15 03:49:12;;;;;;;11.68;6.47;;;;;;;3.61;93.50;101994.28;5041651;28;20025;-69
2023/02/15 03:51:42;;;;;;;11.23;6.53;;;;;;;4.47;88.21;101991.44;5046242;28;20081;-69
2023/02/15 03:54:07;;;;;;;11.85;6.40;;;;;;;4.69;86.50;101999.06;5044062;28;20103;-69
2023/02/15 03:56:36;;;;;;;11.05;5.85;;;;;;;4.61;86.41;101996.81;5036271;28;20042;-69
2023/02/15 04:02:04;;;;;;;13.10;7.88;;;;;;;4.29;86.83;102005.97;5052470;28;20116;-69
2023/02/15 04:04:34;;;;;;;11.75;6.63;;;;;;;3.77;89.77;101996.22;5050204;28;20028;-69
2023/02/15 04:07:01;;;;;;;11.27;6.55;;;;;;;3.70;91.01;102005.09;5049931;28;20120;-69
2023/02/15 04:12:12;;;;;;;12.23;7.05;;;;;;;3.76;89.57;102000.53;5046005;28;20122;-69
2023/02/15 04:17:21;;;;;;;13.27;6.35;;;;;;;4.80;84.34;101995.97;5047333;28;20102;-69
2023/02/15 04:25:14;;;;;;;10.10;7.22;;;;;;;5.43;80.59;101980.91;5042336;28;20110;-69
2023/02/15 04:27:49;;;;;;;10.88;6.63;;;;;;;5.42;80.81;101993.00;5038499;28;20041;-69
2023/02/15 04:30:16;;;;;;;12.50;6.85;;;;;;;5.26;81.54;101994.63;5042550;28;20026;-69
2023/02/15 04:32:42;;;;;;;10.73;6.35;;;;;;;5.00;82.40;101994.13;5047112;28;20112;-69
2023/02/15 04:35:09;;;;;;;12.15;6.88;;;;;;;4.99;82.40;102004.53;5045861;28;20128;-69
2023/02/15 04:37:34;;;;;;;12.77;6.53;;;;;;;4.72;83.30;101998.91;5040929;28;20068;-69
2023/02/15 04:40:00;;;;;;;11.57;7.00;;;;;;;4.47;84.14;101994.00;5044790;28;20042;-69
2023/02/15 04:42:25;;;;;;;13.57;7.28;;;;;;;4.14;85.22;102000.66;5046460;28;20446;-69
2023/02/15 04:44:52;;;;;;;12.02;7.53;;;;;;;3.63;87.36;101996.78;5047405;28;20040;-69
2023/02/15 04:47:17;;;;;;;13.50;7.80;;;;;;;3.16;89.63;101994.38;5042466;28;20549;-69
2023/02/15 04:49:43;;;;;;;11.77;6.80;;;;;;;2.79;91.29;102000.09;5046156;28;20037;-69
2023/02/15 04:52:08;;;;;;;10.43;6.97;;;;;;;2.50;93.30;101990.03;5043929;28;20021;-69
2023/02/15 04:54:34;;;;;;;14.68;7.85;;;;;;;2.43;95.29;101991.97;5047223;28;20364;-69
2023/02/15 04:56:59;;;;;;;20.65;8.60;;;;;;;3.23;92.23;101985.50;5040069;28;20033;-69
2023/02/15 04:59:24;;;;;;;18.33;8.07;;;;;;;3.75;89.10;101987.72;5047098;28;20807;-69
2023/02/15 05:01:50;;;;;;;11.85;6.93;;;;;;;4.02;87.18;101993.44;5049973;28;20116;-69
2023/02/15 05:04:15;;;;;;;13.02;7.22;;;;;;;3.88;86.58;101986.28;5050465;28;20130;-69
2023/02/15 05:06:41;;;;;;;15.20;7.88;;;;;;;3.43;88.06;101994.16;5048172;28;20041;-69
2023/02/15 05:09:06;;;;;;;16.27;7.95;;;;;;;3.21;89.77;101987.31;5050463;28;20029;-69
2023/02/15 05:11:32;;;;;;;14.63;7.93;;;;;;;3.16;90.85;101989.22;5045496;28;20035;-69
2023/02/15 05:13:58;;;;;;;11.57;7.25;;;;;;;4.09;86.74;101987.94;5049456;28;20089;-70
2023/02/15 05:16:25;;;;;;;14.27;7.50;;;;;;;4.44;84.47;101993.31;5044814;28;20088;-70
2023/02/15 05:18:50;;;;;;;10.30;6.13;;;;;;;4.38;84.79;101994.41;5050847;28;20044;-69
2023/02/15 05:21:16;;;;;;;12.43;7.00;;;;;;;4.54;83.68;101994.56;5050201;28;20033;-69
2023/02/15 05:23:42;;;;;;;11.32;7.03;;;;;;;4.64;83.29;101990.69;5051835;28;20045;-69
2023/02/15 05:29:01;;;;;;;10.60;7.10;;;;;;;3.75;85.74;101995.44;5045792;28;20060;-69
2023/02/15 05:31:26;;;;;;;13.73;7.00;;;;;;;3.25;88.96;101991.44;5043963;28;21726;-69
2023/02/15 05:33:52;;;;;;;15.75;8.02;;;;;;;2.94;90.59;101991.78;5050972;28;20033;-69
2023/02/15 05:36:17;;;;;;;13.57;8.13;;;;;;;2.89;91.60;101993.69;5052151;28;20066;-69
2023/02/15 05:38:42;;;;;;;11.85;7.43;;;;;;;2.81;91.86;101998.31;5050364;28;20384;-69
2023/02/15 05:41:10;;;;;;;12.80;7.85;;;;;;;2.73;93.25;101995.19;5048418;28;20032;-69
2023/02/15 05:43:36;;;;;;;13.57;7.55;;;;;;;3.32;89.79;102005.72;5047396;28;20499;-69
2023/02/15 05:46:02;;;;;;;13.98;8.02;;;;;;;3.20;89.33;101995.09;5050088;28;20033;-69
2023/02/15 05:48:28;;;;;;;11.07;7.03;;;;;;;3.32;90.22;101999.75;5046743;28;20060;-69
2023/02/15 05:51:16;;;;;;;17.52;9.50;;;;;;;3.39;89.09;101996.03;5049703;28;20392;-69
2023/02/15 05:53:42;;;;;;;13.88;8.13;;;;;;;3.65;87.73;102002.72;5050044;28;20109;-68
2023/02/15 05:56:11;;;;;;;11.48;7.20;;;;;;;3.77;87.56;101993.66;5048575;28;20452;-69
2023/02/15 05:58:40;;;;;;;15.98;8.45;;;;;;;3.92;87.09;102004.13;5046897;28;20696;-69
2023/02/15 06:01:09;;;;;;;16.02;9.02;;;;;;;4.02;86.17;102004.59;5023270;28;20393;-69
2023/02/15 06:03:34;;;;;;;15.32;8.60;;;;;;;4.01;86.17;102015.81;5043365;28;20472;-69
2023/02/15 06:06:00;;;;;;;17.25;8.32;;;;;;;3.75;86.84;102009.19;5040321;28;20095;-69
2023/02/15 06:08:25;;;;;;;15.75;9.10;;;;;;;3.49;88.17;102007.66;5043018;28;20037;-69
2023/02/15 06:10:51;;;;;;;13.52;7.93;;;;;;;3.23;89.60;102010.44;5045360;28;20071;-69
2023/02/15 06:13:16;;;;;;;20.10;9.35;;;;;;;3.00;90.47;102014.72;5050081;28;20033;-69
2023/02/15 06:15:41;;;;;;;15.98;8.27;;;;;;;2.71;91.71;102022.72;5053958;28;20469;-69
2023/02/15 06:18:07;;;;;;;14.02;8.68;;;;;;;2.47;92.97;102033.88;5042929;28;20036;-69
2023/02/15 06:20:32;;;;;;;15.00;8.63;;;;;;;2.37;93.82;102022.22;5055477;28;20032;-69
2023/02/15 06:22:58;;;;;;;14.05;8.45;;;;;;;2.24;94.38;102025.25;5044657;28;20032;-69
2023/02/15 06:25:24;;;;;;;17.00;8.68;;;;;;;2.48;95.11;102023.53;5047429;28;20098;-68
2023/02/15 06:27:49;;;;;;;14.55;8.55;;;;;;;3.09;91.12;102026.41;5044829;28;20337;-69
2023/02/15 06:30:15;;;;;;;15.82;7.95;;;;;;;3.25;90.38;102018.94;5044730;28;20043;-68
2023/02/15 06:32:41;;;;;;;20.27;9.52;;;;;;;3.55;88.75;102027.19;5045118;28;20039;-69
2023/02/15 06:35:07;;;;;;;13.45;7.57;;;;;;;4.23;86.09;102026.91;5052918;28;20036;-69
2023/02/15 06:37:32;;;;;;;19.50;8.50;;;;;;;4.72;82.93;102039.38;5049100;28;20149;-69
2023/02/15 06:39:58;;;;;;;18.80;9.18;;;;;;;4.81;82.46;102033.78;5048917;28;20524;-69
2023/02/15 06:42:25;;;;;;;17.58;7.95;;;;;;;4.49;83.91;102037.81;5053043;28;20055;-69
2023/02/15 06:44:50;;;;;;;15.95;9.35;;;;;;;4.55;84.01;102038.38;5041972;28;20032;-69
2023/02/15 06:47:16;;;;;;;18.65;8.77;;;;;;;4.87;82.27;102042.09;5049150;28;20056;-69
2023/02/15 06:49:41;;;;;;;16.95;8.77;;;;;;;4.93;82.13;102035.81;5043807;28;20491;-68
2023/02/15 06:52:06;;;;;;;20.20;9.45;;;;;;;5.09;81.31;102033.38;5039288;28;20052;-68
2023/02/15 06:54:32;;;;;;;21.55;9.10;;;;;;;5.10;81.33;102035.06;5038940;28;20399;-68
2023/02/15 06:56:57;;;;;;;15.68;8.98;;;;;;;5.01;81.76;102041.47;5041420;28;20412;-68
2023/02/15 06:59:23;;;;;;;17.10;8.70;;;;;;;5.22;80.64;102042.22;5037512;28;20029;-68
2023/02/15 07:01:49;;;;;;;11.25;7.75;;;;;;;5.18;80.88;102033.78;5039513;28;20018;-68
2023/02/15 07:04:14;;;;;;;16.95;8.32;;;;;;;5.30;80.46;102045.28;5047868;28;20031;-68
2023/02/15 07:06:40;;;;;;;16.02;9.25;;;;;;;5.36;80.23;102039.81;5040642;28;20435;-68
2023/02/15 07:09:05;;;;;;;19.35;8.77;;;;;;;5.49;79.15;102033.16;5044558;28;20048;-68
2023/02/15 07:14:15;;;;;;;17.05;8.32;;;;;;;5.81;76.93;102030.75;5046356;28;20064;-68
2023/02/15 07:16:40;;;;;;;15.93;8.77;;;;;;;5.97;76.06;102029.09;5045091;28;20037;-68
2023/02/15 07:19:06;;;;;;;19.35;8.32;;;;;;;6.01;75.98;102024.63;5045673;28;20033;-68
2023/02/15 07:21:33;;;;;;;22.45;9.18;;;;;;;5.99;76.44;102027.28;5037414;28;20029;-68
2023/02/15 07:23:58;;;;;;;17.88;8.25;;;;;;;6.05;75.87;102026.13;5038469;28;20039;-68
2023/02/15 07:26:24;;;;;;;16.75;8.45;;;;;;;6.12;75.77;102032.69;5036926;28;20111;-68
2023/02/15 07:28:49;;;;;;;15.40;8.23;;;;;;;6.08;76.00;102031.16;5038485;28;21163;-68
2023/02/15 07:31:15;;;;;;;15.18;8.30;;;;;;;5.99;76.85;102032.44;5041850;28;20075;-68
2023/02/15 07:33:41;;;;;;;19.33;7.78;;;;;;;5.98;76.92;102028.19;5045373;28;20028;-68
2023/02/15 07:36:07;;;;;;;16.58;8.05;;;;;;;6.02;76.60;102021.94;5046573;28;20124;-68
2023/02/15 07:38:37;;;;;;;18.83;7.88;;;;;;;6.17;75.55;102031.50;5040960;28;20036;-68
2023/02/15 07:41:05;;;;;;;20.23;8.52;;;;;;;6.19;75.90;102029.66;5040987;28;20146;-68
2023/02/15 07:43:33;;;;;;;19.23;8.38;;;;;;;6.26;75.32;102030.19;5038433;28;20086;-67
2023/02/15 07:46:04;;;;;;;18.20;8.80;;;;;;;6.31;74.61;102029.06;5041370;28;20040;-68
2023/02/15 07:48:30;;;;;;;16.52;8.52;;;;;;;6.31;75.36;102023.88;5041014;28;20116;-68
2023/02/15 07:51:02;;;;;;;20.33;9.75;;;;;;;6.19;75.92;102024.50;5038901;28;20121;-68
2023/02/15 07:53:28;;;;;;;18.23;9.13;;;;;;;6.07;76.52;102024.31;5040401;28;20039;-68
2023/02/15 07:55:53;;;;;;;18.80;9.02;;;;;;;6.14;76.57;102030.84;5042958;28;20036;-68
2023/02/15 07:58:19;;;;;;;15.82;7.95;;;;;;;6.51;74.77;102029.78;5038355;28;20049;-67
2023/02/15 08:00:57;;;;;;;16.85;8.45;;;;;;;6.66;74.07;102032.38;5042399;28;20036;-68
2023/02/15 08:03:26;;;;;;;18.50;8.52;;;;;;;6.73;73.76;102027.72;5038479;28;20112;-68
2023/02/15 08:05:56;;;;;;;15.52;8.13;;;;;;;6.78;73.60;102022.28;5040660;28;20048;-68
2023/02/15 08:08:30;;;;;;;17.38;8.13;;;;;;;6.86;72.87;102020.97;5039055;28;20369;-68
2023/02/15 08:11:25;;;;;;;16.20;8.88;;;;;;;6.97;72.69;102029.00;5052048;28;20376;-68
2023/02/15 08:14:04;;;;;;;17.25;9.88;;;;;;;7.15;72.66;102027.13;5039053;28;20021;-68
2023/02/15 08:16:33;;;;;;;18.17;9.60;;;;;;;7.09;73.57;102031.84;5043647;28;20468;-68
2023/02/15 08:19:01;;;;;;;17.33;10.13;;;;;;;6.94;74.70;102028.31;5043435;28;20029;-68
2023/02/15 08:21:28;;;;;;;20.33;9.25;;;;;;;7.01;74.26;102023.66;5045485;28;20036;-68
2023/02/15 08:23:55;;;;;;;15.63;8.35;;;;;;;7.10;73.48;102015.34;5050029;28;20119;-68
2023/02/15 08:26:21;;;;;;;15.43;9.38;;;;;;;7.26;72.64;102008.41;5038478;28;20124;-67
2023/02/15 08:28:48;;;;;;;14.93;8.00;;;;;;;7.33;72.42;102009.72;5041869;28;20087;-68
2023/02/15 08:31:14;;;;;;;15.23;9.50;;;;;;;7.32;72.23;102008.88;5055470;28;20024;-67
2023/02/15 08:33:41;;;;;;;13.27;8.10;;;;;;;7.41;71.33;102012.72;5049687;28;20060;-67
2023/02/15 08:36:13;;;;;;;15.68;7.35;;;;;;;7.57;70.43;102017.84;5051312;28;20028;-68
2023/02/15 08:38:39;;;;;;;14.05;7.28;;;;;;;7.89;68.90;102018.63;5042809;28;20025;-68
2023/02/15 08:41:16;;;;;;;13.95;8.43;;;;;;;7.98;67.56;102012.91;5050830;28;20124;-68
2023/02/15 08:43:43;;;;;;;13.98;7.20;;;;;;;8.21;67.25;102012.34;5045940;28;20037;-68
2023/02/15 08:46:10;;;;;;;14.88;7.68;;;;;;;8.21;67.55;102014.09;5046859;28;20057;-68
2023/02/15 08:48:35;;;;;;;11.57;6.90;;;;;;;8.43;66.54;102008.50;5050252;28;20041;-68
2023/02/15 08:51:10;;;;;;;15.48;7.82;;;;;;;8.44;66.53;102015.38;5047330;28;20533;-68
2023/02/15 08:53:36;;;;;;;12.60;6.63;;;;;;;8.55;66.37;102016.34;5049702;28;20040;-68
2023/02/15 08:56:02;;;;;;;11.70;7.60;;;;;;;8.60;65.89;102016.06;5049463;28;20464;-68
2023/02/15 08:58:28;;;;;;;12.52;7.85;;;;;;;8.67;65.99;102009.56;5041630;28;20040;-68
2023/02/15 09:00:54;;;;;;;21.25;8.30;;;;;;;8.64;66.21;102012.38;5048458;28;20038;-68
2023/02/15 09:03:19;;;;;;;15.15;7.53;;;;;;;8.70;65.94;102004.19;5033478;28;20030;-68
2023/02/15 09:05:45;;;;;;;13.73;8.10;;;;;;;8.77;65.84;102004.66;5041381;28;20094;-68
2023/02/15 09:08:10;;;;;;;15.32;8.68;;;;;;;8.76;65.97;102000.38;5048091;28;20140;-68
2023/02/15 09:10:35;;;;;;;18.00;7.50;;;;;;;8.63;66.61;102005.50;5045343;28;20039;-68
2023/02/15 09:13:01;;;;;;;11.93;7.63;;;;;;;8.55;66.78;102015.53;5051210;28;20116;-68
2023/02/15 09:15:26;;;;;;;15.63;8.25;;;;;;;8.53;67.16;102012.19;5050181;28;20028;-68
2023/02/15 09:17:52;;;;;;;16.40;7.55;;;;;;;8.44;67.53;102005.81;5049019;28;20075;-68
2023/02/15 09:20:18;;;;;;;16.63;8.05;;;;;;;8.51;67.42;102011.44;5050939;28;20029;-68
2023/02/15 09:22:43;;;;;;;13.73;8.38;;;;;;;8.53;67.15;102005.22;5048607;28;20044;-68
2023/02/15 09:25:09;;;;;;;19.08;9.00;;;;;;;8.54;67.44;102006.06;5045630;28;20033;-68
2023/02/15 09:27:34;;;;;;;12.43;7.68;;;;;;;8.62;66.77;102011.63;5050778;28;20025;-68
2023/02/15 09:30:00;;;;;;;12.95;7.75;;;;;;;8.76;66.08;102001.22;5048931;28;20025;-68
2023/02/15 09:32:25;;;;;;;11.80;7.47;;;;;;;9.02;64.65;102001.34;5047044;28;20037;-69
2023/02/15 09:34:50;;;;;;;13.07;6.43;;;;;;;9.11;64.35;101991.19;5050167;28;20094;-69
2023/02/15 09:37:16;;;;;;;13.48;5.97;;;;;;;9.28;63.83;102000.50;5050588;28;20041;-68
2023/02/15 09:39:43;;;;;;;10.20;6.28;;;;;;;9.58;62.12;102002.88;5050368;28;20917;-68
2023/02/15 09:42:21;;;;;;;10.10;6.22;;;;;;;9.64;62.03;102000.72;5050239;28;20558;-68
2023/02/15 09:44:52;;;;;;;10.55;5.00;;;;;;;9.54;62.43;101997.03;5045159;28;20040;-68
2023/02/15 09:47:36;;;;;;;15.18;5.72;;;;;;;9.52;60.71;101996.31;5049362;28;20510;-68
2023/02/15 09:50:17;;;;;;;12.73;6.25;;;;;;;9.69;61.58;101991.75;5047281;28;20458;-69
2023/02/15 09:52:47;;;;;;;10.25;5.45;;;;;;;9.70;61.78;101994.25;5049370;28;20041;-68
2023/02/15 09:55:24;;;;;;;14.77;6.72;;;;;;;9.82;60.28;101987.41;5049969;28;20112;-68
2023/02/15 09:58:21;;;;;;;9.13;5.75;;;;;;;10.16;58.21;101986.78;5042391;28;20124;-69
2023/02/15 10:00:54;;;;;;;13.55;5.97;;;;;;;10.24;59.84;101979.31;5049786;28;20040;-69
2023/02/15 10:03:22;;;;;;;10.82;6.40;;;;;;;10.53;58.78;101973.84;5046432;28;20029;-69
2023/02/15 10:05:58;;;;;;;12.93;6.68;;;;;;;10.50;57.35;101976.66;5046422;28;20041;-69
2023/02/15 10:08:55;;;;;;;15.75;6.82;;;;;;;10.28;58.71;101980.78;5045665;28;20071;-68
2023/02/15 10:11:42;;;;;;;14.70;6.63;;;;;;;10.60;58.40;101968.09;5051488;28;20094;-69
2023/02/15 10:14:27;;;;;;;13.18;7.57;;;;;;;10.84;57.33;101968.13;5046862;28;20082;-68
2023/02/15 10:17:17;;;;;;;11.80;7.18;;;;;;;10.59;58.71;101976.03;5050569;28;20424;-68
2023/02/15 10:20:17;;;;;;;13.40;7.57;;;;;;;10.62;58.26;101973.19;5047377;28;20037;-68
2023/02/15 10:23:11;;;;;;;11.98;6.95;;;;;;;10.47;58.91;101969.06;5049153;28;20055;-68
2023/02/15 10:26:02;;;;;;;11.73;7.07;;;;;;;10.44;57.89;101961.44;5046647;28;20052;-68
2023/02/15 10:28:42;;;;;;;16.10;7.18;;;;;;;10.70;58.77;101963.06;5046203;28;20041;-68
2023/02/15 10:31:22;;;;;;;12.50;5.93;;;;;;;10.60;58.14;101964.66;5049100;28;20036;-68
2023/02/15 10:33:51;;;;;;;9.65;4.82;;;;;;;11.13;57.79;101959.97;5043211;28;20029;-68
2023/02/15 10:36:45;;;;;;;11.23;5.68;;;;;;;11.14;56.15;101959.88;5048632;28;20033;-69
2023/02/15 10:39:22;;;;;;;7.78;5.50;;;;;;;10.75;57.61;101960.97;5045971;28;20037;-68
2023/02/15 10:42:18;;;;;;;9.43;5.70;;;;;;;10.94;57.01;101956.09;5044131;28;20037;-68
2023/02/15 10:45:02;;;;;;;10.07;5.18;;;;;;;11.27;57.01;101951.97;5047838;28;20033;-68
2023/02/15 10:47:46;;;;;;;9.10;6.18;;;;;;;11.21;56.31;101953.25;5047631;28;20072;-69
2023/02/15 10:50:35;;;;;;;13.02;7.63;;;;;;;11.27;56.05;101949.38;5048649;28;20029;-68
2023/02/15 10:53:22;;;;;;;16.23;9.13;;;;;;;11.26;55.75;101947.69;5045795;28;20443;-68
2023/02/15 10:56:06;;;;;;;16.15;9.85;;;;;;;11.46;56.23;101941.00;5043533;28;20025;-68
2023/02/15 10:59:05;;;;;;;12.63;5.65;;;;;;;11.71;54.13;101942.59;5045165;28;20033;-69
2023/02/15 11:01:39;;;;;;;7.28;6.03;;;;;;;11.94;54.62;101945.16;5048226;28;20040;-68
2023/02/15 11:04:10;;;;;;;8.77;4.90;;;;;;;12.38;51.88;101943.47;5049288;28;20480;-69
2023/02/15 11:06:39;;;;;;;9.98;6.78;;;;;;;12.42;53.07;101939.66;5047763;28;20136;-69
2023/02/15 11:09:15;;;;;;;10.10;6.32;;;;;;;12.10;53.55;101938.75;5049276;28;20127;-69
2023/02/15 11:11:44;;;;;;;;;;;;;;;11.93;51.98;101937.44;5047234;28;20040;-69
2023/02/15 11:14:13;;;;;;;7.93;3.72;;;;;;;11.96;53.59;101926.75;5049171;28;19920;-68
2023/02/15 11:16:44;;;;;;;8.55;4.10;;;;;;;12.39;51.88;101923.41;5048076;28;20036;-69
2023/02/15 11:19:53;;;;;;;11.68;3.72;;;;;;;12.53;50.63;101923.97;5049308;28;20036;-69
2023/02/15 11:22:19;;;;;;;6.53;4.60;;;;;;;12.61;51.28;101920.75;5042851;28;20036;-68
2023/02/15 11:24:46;;;;;;;8.00;5.05;;;;;;;12.45;51.16;101915.06;5045923;28;20128;-69
2023/02/15 11:27:32;;;;;;;7.30;3.20;;;;;;;12.40;49.83;101912.81;5046476;28;20496;-68
2023/02/15 11:30:05;;;;;;;7.00;4.25;;;;;;;12.38;50.95;101912.09;5030243;28;20040;-69
2023/02/15 11:32:33;;;;;;;7.50;4.40;;;;;;;12.73;50.18;101901.47;5045232;28;20488;-69
2023/02/15 11:35:11;;;;;;;9.20;5.60;;;;;;;13.03;48.93;101898.13;5046294;28;20029;-69
2023/02/15 11:37:50;;;;;;;5.55;3.80;;;;;;;13.12;48.80;101900.00;5037736;28;20044;-69
2023/02/15 11:40:32;;;;;;;7.22;3.80;;;;;;;13.03;49.43;101892.06;5040101;28;20036;-69
2023/02/15 11:43:03;;;;;;;9.05;3.45;;;;;;;12.81;49.72;101885.97;5046037;28;20059;-69
2023/02/15 11:45:31;;;;;;;4.28;3.20;;;;;;;12.71;50.02;101898.16;5040250;28;20515;-69
2023/02/15 11:47:59;;;;;;;10.85;4.15;;;;;;;12.64;50.05;101896.97;5029748;28;20195;-69
2023/02/15 11:50:27;;;;;;;8.27;4.80;;;;;;;12.68;50.09;101884.50;5036070;28;20045;-69
2023/02/15 11:52:59;;;;;;;5.75;3.22;;;;;;;12.71;49.73;101879.84;5027780;28;20060;-69
2023/02/15 11:55:28;;;;;;;9.32;4.32;;;;;;;12.89;47.44;101880.94;5033239;28;20052;-69
2023/02/15 11:58:06;;;;;;;6.43;4.30;;;;;;;12.99;47.95;101870.56;5038167;28;20010;-68